createdAt,value
2023-04-18T00:00:39.127Z,82.84
2023-04-18T00:01:39.133Z,82.84
2023-04-18T00:02:39.180Z,82.74
2023-04-18T00:03:39.230Z,82.64
2023-04-18T00:04:39.224Z,82.70
2023-04-18T00:05:39.117Z,82.70
2023-04-18T00:06:39.076Z,82.50
2023-04-18T00:07:39.063Z,82.60
2023-04-18T00:08:39.063Z,82.50
2023-04-18T00:09:39.086Z,82.50
2023-04-18T00:10:39.053Z,82.90
2023-04-18T00:11:38.999Z,82.60
2023-04-18T00:12:39.011Z,82.60
2023-04-18T00:13:38.997Z,82.60
2023-04-18T00:14:38.979Z,82.60
2023-04-18T00:15:38.987Z,82.39
2023-04-18T00:16:38.982Z,82.50
2023-04-18T00:17:38.984Z,82.50
2023-04-18T00:18:38.920Z,82.80
2023-04-18T00:19:38.922Z,82.90
2023-04-18T00:20:38.976Z,83.01
2023-04-18T00:21:38.913Z,83.11
2023-04-18T00:22:38.898Z,83.32
2023-04-18T00:23:38.895Z,83.32
2023-04-18T00:24:38.869Z,83.11
2023-04-18T00:25:38.887Z,83.22
2023-04-18T00:26:38.870Z,83.22
2023-04-18T00:27:38.855Z,83.42
2023-04-18T00:28:38.839Z,83.42
2023-04-18T00:29:38.805Z,83.53
2023-04-18T00:30:38.840Z,83.53
2023-04-18T00:31:38.807Z,83.73
2023-04-18T00:32:38.803Z,83.84
2023-04-18T00:33:38.799Z,84.15
2023-04-18T00:34:38.793Z,83.84
2023-04-18T00:35:38.763Z,83.94
2023-04-18T00:36:38.727Z,84.05
2023-04-18T00:37:38.748Z,83.94
2023-04-18T00:38:38.735Z,83.94
2023-04-18T00:39:38.702Z,84.05
2023-04-18T00:40:38.819Z,83.94
2023-04-18T00:41:38.706Z,84.05
2023-04-18T00:42:38.658Z,83.94
2023-04-18T00:43:38.706Z,84.15
2023-04-18T00:44:38.657Z,84.05
2023-04-18T00:45:38.644Z,84.05
2023-04-18T00:46:38.639Z,83.94
2023-04-18T00:47:38.670Z,83.94
2023-04-18T00:48:38.609Z,84.15
2023-04-18T00:49:38.619Z,84.25
2023-04-18T00:50:38.628Z,84.25
2023-04-18T00:51:38.614Z,84.25
2023-04-18T00:52:38.601Z,84.36
2023-04-18T00:53:38.584Z,84.31
2023-04-18T00:54:38.569Z,84.42
2023-04-18T00:55:38.542Z,84.21
2023-04-18T00:56:38.538Z,84.31
2023-04-18T00:57:38.534Z,84.42
2023-04-18T00:58:38.527Z,84.66
2023-04-18T00:59:38.542Z,84.66
2023-04-18T01:00:38.534Z,84.83
2023-04-18T01:01:38.528Z,84.94
2023-04-18T01:02:38.532Z,84.83
2023-04-18T01:03:38.645Z,84.94
2023-04-18T01:04:38.654Z,85.04
2023-04-18T01:05:38.434Z,85.04
2023-04-18T01:06:38.482Z,85.14
2023-04-18T01:07:38.409Z,85.14
2023-04-18T01:08:38.399Z,85.24
2023-04-18T01:09:38.432Z,85.35
2023-04-18T01:10:38.392Z,85.24
2023-04-18T01:11:38.376Z,85.24
2023-04-18T01:12:38.372Z,85.24
2023-04-18T01:13:38.340Z,85.24
2023-04-18T01:14:38.352Z,85.24
2023-04-18T01:15:38.367Z,85.35
2023-04-18T01:16:38.313Z,85.24
2023-04-18T01:17:38.362Z,85.35
2023-04-18T01:18:38.272Z,85.35
2023-04-18T01:19:38.298Z,85.35
2023-04-18T01:20:38.269Z,85.45
2023-04-18T01:21:38.265Z,85.35
2023-04-18T01:22:38.252Z,85.24
2023-04-18T01:23:38.259Z,85.35
2023-04-18T01:24:38.211Z,85.35
2023-04-18T01:25:38.246Z,85.41
2023-04-18T01:26:38.198Z,85.31
2023-04-18T01:27:38.187Z,85.31
2023-04-18T01:28:38.232Z,85.41
2023-04-18T01:29:38.993Z,85.31
2023-04-18T01:30:38.154Z,85.35
2023-04-18T01:31:38.210Z,85.52
2023-04-18T01:32:38.160Z,85.72
2023-04-18T01:33:38.161Z,85.83
2023-04-18T01:34:38.113Z,85.62
2023-04-18T01:35:38.111Z,85.86
2023-04-18T01:36:38.137Z,85.97
2023-04-18T01:37:38.083Z,85.72
2023-04-18T01:38:38.103Z,85.83
2023-04-18T01:39:38.133Z,85.93
2023-04-18T01:40:38.059Z,85.83
2023-04-18T01:41:38.042Z,85.83
2023-04-18T01:42:38.031Z,85.83
2023-04-18T01:43:38.045Z,85.72
2023-04-18T01:44:38.020Z,85.62
2023-04-18T01:45:38.005Z,85.72
2023-04-18T01:46:38.052Z,85.72
2023-04-18T01:47:38.044Z,85.83
2023-04-18T01:48:37.982Z,85.93
2023-04-18T01:49:37.957Z,85.93
2023-04-18T01:50:37.959Z,86.24
2023-04-18T01:51:37.947Z,86.24
2023-04-18T01:52:37.955Z,86.24
2023-04-18T01:53:37.907Z,86.49
2023-04-18T01:54:37.930Z,86.49
2023-04-18T01:55:37.894Z,86.49
2023-04-18T01:56:37.905Z,86.65
2023-04-18T01:57:37.860Z,86.55
2023-04-18T01:58:37.879Z,86.65
2023-04-18T01:59:37.854Z,86.79
2023-04-18T02:00:37.957Z,86.55
2023-04-18T02:01:37.849Z,86.79
2023-04-18T02:02:37.946Z,86.86
2023-04-18T02:03:37.952Z,86.96
2023-04-18T02:04:37.786Z,87.10
2023-04-18T02:05:37.787Z,87.10
2023-04-18T02:06:37.774Z,87.31
2023-04-18T02:07:37.769Z,87.31
2023-04-18T02:08:37.782Z,87.41
2023-04-18T02:09:37.766Z,87.37
2023-04-18T02:10:37.747Z,87.41
2023-04-18T02:11:37.728Z,87.62
2023-04-18T02:12:37.701Z,87.62
2023-04-18T02:13:37.738Z,87.73
2023-04-18T02:14:37.713Z,87.83
2023-04-18T02:15:37.723Z,88.04
2023-04-18T02:16:37.708Z,88.04
2023-04-18T02:17:37.718Z,88.20
2023-04-18T02:18:37.636Z,88.24
2023-04-18T02:19:37.664Z,88.34
2023-04-18T02:20:37.632Z,88.34
2023-04-18T02:21:37.741Z,88.55
2023-04-18T02:22:37.625Z,88.51
2023-04-18T02:23:37.590Z,88.76
2023-04-18T02:24:37.598Z,88.92
2023-04-18T02:25:37.561Z,88.96
2023-04-18T02:26:37.599Z,89.17
2023-04-18T02:27:37.568Z,89.38
2023-04-18T02:28:37.556Z,89.79
2023-04-18T02:29:37.555Z,90.00
2023-04-18T02:30:37.542Z,90.31
2023-04-18T02:31:37.539Z,90.52
2023-04-18T02:32:37.566Z,90.62
2023-04-18T02:33:37.484Z,90.83
2023-04-18T02:34:37.469Z,90.97
2023-04-18T02:35:37.466Z,90.97
2023-04-18T02:36:37.446Z,91.13
2023-04-18T02:37:37.445Z,91.13
2023-04-18T02:38:37.432Z,91.17
2023-04-18T02:39:37.456Z,91.17
2023-04-18T02:40:37.423Z,91.07
2023-04-18T02:41:37.434Z,91.07
2023-04-18T02:42:37.415Z,91.17
2023-04-18T02:43:37.379Z,91.17
2023-04-18T02:44:37.406Z,91.17
2023-04-18T02:45:37.384Z,91.28
2023-04-18T02:46:37.337Z,91.38
2023-04-18T02:47:43.775Z,91.49
2023-04-18T02:48:37.341Z,91.59
2023-04-18T02:49:37.305Z,91.59
2023-04-18T02:54:18.762Z,92.21
2023-04-18T02:55:12.206Z,92.32
2023-04-18T02:56:12.214Z,92.42
2023-04-18T02:57:12.170Z,92.42
2023-04-18T02:58:12.211Z,92.52
2023-04-18T02:59:12.160Z,92.32
2023-04-18T03:00:12.166Z,92.42
2023-04-18T03:01:12.177Z,92.42
2023-04-18T03:02:12.212Z,92.52
2023-04-18T03:03:12.131Z,92.52
2023-04-18T03:04:12.253Z,92.52
2023-04-18T03:05:12.304Z,92.52
2023-04-18T03:06:12.093Z,92.67
2023-04-18T03:07:12.093Z,92.83
2023-04-18T03:08:12.064Z,92.72
2023-04-18T03:09:12.070Z,92.72
2023-04-18T03:10:12.049Z,92.83
2023-04-18T03:11:12.039Z,93.04
2023-04-18T03:12:12.052Z,93.08
2023-04-18T03:13:12.042Z,92.97
2023-04-18T03:14:12.182Z,93.08
2023-04-18T03:15:12.009Z,92.97
2023-04-18T03:16:12.012Z,92.97
2023-04-18T03:17:11.974Z,93.18
2023-04-18T03:18:11.962Z,93.18
2023-04-18T03:19:11.977Z,93.29
2023-04-18T03:20:11.945Z,93.39
2023-04-18T03:21:11.924Z,93.39
2023-04-18T03:22:11.919Z,93.49
2023-04-18T03:23:11.903Z,93.70
2023-04-18T03:24:12.365Z,93.60
2023-04-18T03:25:11.893Z,93.80
2023-04-18T03:26:11.871Z,93.80
2023-04-18T03:27:11.914Z,93.70
2023-04-18T03:28:11.870Z,94.01
2023-04-18T03:29:11.847Z,94.12
2023-04-18T03:30:11.852Z,94.22
2023-04-18T03:31:11.860Z,94.32
2023-04-18T03:32:11.803Z,94.22
2023-04-18T03:33:11.801Z,94.22
2023-04-18T03:34:12.094Z,94.53
2023-04-18T03:35:11.793Z,94.63
2023-04-18T03:36:11.804Z,94.94
2023-04-18T03:37:11.796Z,95.04
2023-04-18T03:38:11.774Z,95.25
2023-04-18T03:39:11.757Z,95.46
2023-04-18T03:40:11.748Z,95.56
2023-04-18T03:41:11.754Z,95.71
2023-04-18T03:42:11.776Z,95.81
2023-04-18T03:43:11.768Z,95.92
2023-04-18T03:44:11.886Z,95.92
2023-04-18T03:45:11.761Z,96.12
2023-04-18T03:46:11.748Z,96.23
2023-04-18T03:47:11.670Z,96.23
2023-04-18T03:48:11.648Z,96.33
2023-04-18T03:49:11.666Z,96.33
2023-04-18T03:50:11.625Z,96.23
2023-04-18T03:51:11.671Z,96.23
2023-04-18T03:52:11.629Z,96.23
2023-04-18T03:53:11.604Z,96.33
2023-04-18T03:54:11.779Z,96.12
2023-04-18T03:55:11.587Z,95.87
2023-04-18T03:56:11.713Z,95.71
2023-04-18T03:57:11.560Z,95.67
2023-04-18T03:58:11.543Z,95.67
2023-04-18T03:59:11.544Z,95.77
2023-04-18T04:00:11.541Z,95.81
2023-04-18T04:01:11.543Z,95.87
2023-04-18T04:02:11.577Z,95.81
2023-04-18T04:03:11.632Z,95.92
2023-04-18T04:04:11.614Z,96.02
2023-04-18T04:05:11.524Z,96.12
2023-04-18T04:06:11.475Z,96.12
2023-04-18T04:07:11.465Z,96.02
2023-04-18T04:08:11.486Z,95.87
2023-04-18T04:09:11.439Z,95.92
2023-04-18T04:10:11.444Z,95.81
2023-04-18T04:11:11.369Z,95.81
2023-04-18T04:12:11.353Z,95.92
2023-04-18T04:13:11.407Z,96.02
2023-04-18T04:14:11.384Z,96.12
2023-04-18T04:15:11.319Z,96.12
2023-04-18T04:16:11.356Z,96.12
2023-04-18T04:17:11.295Z,96.23
2023-04-18T04:18:11.345Z,96.33
2023-04-18T04:19:11.345Z,96.33
2023-04-18T04:20:11.348Z,96.33
2023-04-18T04:21:11.342Z,96.44
2023-04-18T04:22:11.292Z,96.44
2023-04-18T04:23:11.285Z,96.44
2023-04-18T04:24:11.418Z,96.33
2023-04-18T04:25:11.272Z,96.44
2023-04-18T04:26:11.251Z,96.44
2023-04-18T04:27:11.201Z,96.64
2023-04-18T04:28:11.179Z,96.75
2023-04-18T04:29:11.173Z,96.75
2023-04-18T04:30:13.301Z,96.75
2023-04-18T04:31:11.155Z,96.75
2023-04-18T04:32:11.167Z,96.85
2023-04-18T04:33:11.196Z,96.95
2023-04-18T04:34:11.277Z,97.16
2023-04-18T04:35:11.174Z,97.26
2023-04-18T04:36:11.155Z,97.36
2023-04-18T04:37:11.152Z,97.47
2023-04-18T04:38:11.124Z,97.57
2023-04-18T04:39:11.144Z,97.57
2023-04-18T04:40:11.092Z,97.78
2023-04-18T04:41:11.099Z,97.78
2023-04-18T04:42:11.084Z,97.88
2023-04-18T04:43:11.073Z,98.09
2023-04-18T04:44:11.089Z,98.09
2023-04-18T04:45:11.055Z,98.19
2023-04-18T04:46:11.010Z,98.40
2023-04-18T04:47:10.994Z,98.50
2023-04-18T04:48:10.998Z,98.71
2023-04-18T04:49:10.954Z,98.71
2023-04-18T04:50:10.997Z,98.61
2023-04-18T04:51:10.944Z,98.61
2023-04-18T04:52:10.940Z,98.61
2023-04-18T04:53:10.931Z,98.71
2023-04-18T04:54:10.962Z,98.82
2023-04-18T04:55:10.913Z,98.82
2023-04-18T04:56:10.887Z,98.82
2023-04-18T04:57:10.873Z,98.82
2023-04-18T04:58:10.876Z,98.82
2023-04-18T04:59:10.879Z,98.82
2023-04-18T05:00:10.852Z,98.82
2023-04-18T05:01:10.870Z,98.92
2023-04-18T05:02:10.929Z,99.02
2023-04-18T05:03:10.945Z,99.02
2023-04-18T05:04:10.865Z,99.02
2023-04-18T05:05:10.795Z,99.13
2023-04-18T05:06:10.858Z,99.02
2023-04-18T05:07:10.782Z,99.13
2023-04-18T05:08:10.758Z,99.13
2023-04-18T05:09:10.764Z,99.02
2023-04-18T05:10:10.741Z,99.02
2023-04-18T05:11:10.736Z,99.13
2023-04-18T05:12:10.719Z,99.02
2023-04-18T05:13:10.716Z,99.13
2023-04-18T05:14:10.701Z,99.23
2023-04-18T05:15:10.704Z,99.23
2023-04-18T05:16:10.709Z,99.23
2023-04-18T05:17:10.670Z,99.23
2023-04-18T05:18:10.658Z,99.23
2023-04-18T05:19:10.650Z,99.23
2023-04-18T05:20:10.644Z,99.23
2023-04-18T05:21:10.637Z,99.43
2023-04-18T05:22:10.604Z,99.54
2023-04-18T05:23:10.612Z,99.64
2023-04-18T05:24:10.593Z,99.64
2023-04-18T05:25:10.588Z,99.74
2023-04-18T05:26:10.626Z,99.74
2023-04-18T05:27:10.566Z,99.74
2023-04-18T05:28:10.547Z,99.74
2023-04-18T05:29:10.576Z,99.74
2023-04-18T05:30:10.524Z,99.95
2023-04-18T05:31:10.567Z,99.99
2023-04-18T05:32:10.500Z,99.99
2023-04-18T05:33:10.504Z,99.99
2023-04-18T05:34:10.498Z,99.99
2023-04-18T05:35:10.504Z,99.99
2023-04-18T05:36:10.465Z,99.99
2023-04-18T05:37:10.465Z,99.99
2023-04-18T05:38:10.439Z,99.99
2023-04-18T05:39:10.449Z,99.99
2023-04-18T05:40:10.471Z,99.99
2023-04-18T05:41:10.425Z,99.99
2023-04-18T05:42:10.429Z,99.99
2023-04-18T05:43:10.434Z,99.99
2023-04-18T05:44:10.397Z,99.99
2023-04-18T05:45:10.385Z,99.99
2023-04-18T05:46:10.429Z,99.99
2023-04-18T05:47:10.487Z,99.99
2023-04-18T05:48:10.408Z,99.99
2023-04-18T05:49:10.341Z,99.99
2023-04-18T05:50:10.331Z,99.99
2023-04-18T05:51:11.609Z,99.99
2023-04-18T05:52:10.300Z,99.99
2023-04-18T05:53:10.309Z,99.99
2023-04-18T05:54:10.279Z,99.99
2023-04-18T05:55:10.286Z,99.99
2023-04-18T05:56:10.251Z,99.99
2023-04-18T05:57:10.261Z,99.99
2023-04-18T05:58:10.248Z,99.99
2023-04-18T05:59:10.243Z,99.99
2023-04-18T06:00:10.238Z,99.99
2023-04-18T06:01:10.217Z,99.99
2023-04-18T06:02:10.234Z,99.99
2023-04-18T06:03:11.312Z,99.99
2023-04-18T06:04:10.370Z,99.99
2023-04-18T06:05:10.386Z,99.99
2023-04-18T06:06:10.237Z,99.99
2023-04-18T06:07:10.180Z,99.99
2023-04-18T06:08:10.133Z,99.99
2023-04-18T06:09:10.148Z,99.99
2023-04-18T06:10:10.144Z,99.99
2023-04-18T06:11:10.113Z,99.99
2023-04-18T06:12:10.087Z,99.99
2023-04-18T06:13:10.076Z,99.99
2023-04-18T06:14:10.057Z,99.99
2023-04-18T06:15:10.048Z,99.99
2023-04-18T06:16:10.086Z,99.99
2023-04-18T06:17:10.047Z,99.99
2023-04-18T06:18:10.025Z,99.99
2023-04-18T06:19:10.013Z,99.99
2023-04-18T06:20:10.024Z,99.99
2023-04-18T06:21:10.003Z,99.99
2023-04-18T06:22:09.985Z,99.99
2023-04-18T06:23:10.000Z,99.99
2023-04-18T06:24:09.965Z,99.99
2023-04-18T06:25:10.004Z,99.99
2023-04-18T06:26:09.947Z,99.99
2023-04-18T06:27:17.711Z,99.99
2023-04-18T06:28:09.965Z,99.99
2023-04-18T06:29:09.952Z,99.99
2023-04-18T06:30:09.893Z,99.99
2023-04-18T06:31:09.979Z,99.99
2023-04-18T06:32:09.884Z,99.99
2023-04-18T06:33:09.882Z,99.80
2023-04-18T06:34:09.862Z,99.60
2023-04-18T06:35:09.858Z,99.49
2023-04-18T06:36:09.845Z,99.60
2023-04-18T06:37:09.829Z,99.39
2023-04-18T06:38:09.812Z,99.39
2023-04-18T06:39:09.798Z,99.18
2023-04-18T06:40:09.808Z,98.97
2023-04-18T06:41:09.806Z,99.04
2023-04-18T06:42:09.773Z,99.04
2023-04-18T06:43:09.765Z,98.83
2023-04-18T06:44:09.763Z,98.93
2023-04-18T06:45:09.741Z,99.04
2023-04-18T06:46:09.753Z,99.14
2023-04-18T06:47:09.744Z,99.14
2023-04-18T06:48:09.852Z,99.14
2023-04-18T06:49:09.705Z,99.24
2023-04-18T06:50:09.688Z,99.24
2023-04-18T06:51:09.673Z,99.44
2023-04-18T06:52:09.671Z,99.65
2023-04-18T06:53:09.662Z,99.86
2023-04-18T06:54:09.648Z,99.99
2023-04-18T06:55:09.639Z,99.99
2023-04-18T06:56:09.624Z,99.99
2023-04-18T06:57:09.613Z,99.99
2023-04-18T06:58:09.632Z,99.99
2023-04-18T06:59:09.598Z,99.99
2023-04-18T07:00:09.595Z,99.99
2023-04-18T07:01:09.611Z,99.99
2023-04-18T07:02:09.597Z,99.55
2023-04-18T07:03:11.142Z,99.34
2023-04-18T07:04:09.684Z,99.34
2023-04-18T07:05:09.550Z,99.24
2023-04-18T07:06:09.544Z,99.24
2023-04-18T07:07:09.507Z,99.24
2023-04-18T07:08:09.502Z,99.14
2023-04-18T07:09:09.490Z,99.04
2023-04-18T07:10:09.563Z,99.04
2023-04-18T07:11:09.485Z,98.72
2023-04-18T07:12:09.460Z,98.62
2023-04-18T07:13:09.435Z,98.52
2023-04-18T07:14:09.432Z,98.41
2023-04-18T07:15:09.426Z,98.47
2023-04-18T07:16:09.412Z,98.31
2023-04-18T07:17:09.439Z,98.31
2023-04-18T07:18:09.436Z,98.16
2023-04-18T07:19:09.397Z,97.96
2023-04-18T07:20:09.379Z,98.06
2023-04-18T07:21:09.389Z,98.16
2023-04-18T07:22:09.373Z,98.37
2023-04-18T07:23:09.345Z,98.47
2023-04-18T07:24:09.331Z,98.47
2023-04-18T07:25:09.321Z,98.47
2023-04-18T07:26:09.322Z,98.37
2023-04-18T07:27:09.313Z,98.16
2023-04-18T07:28:09.283Z,98.27
2023-04-18T07:29:09.310Z,98.27
2023-04-18T07:30:09.319Z,98.47
2023-04-18T07:31:09.277Z,98.68
2023-04-18T07:32:09.270Z,98.72
2023-04-18T07:33:09.244Z,98.83
2023-04-18T07:34:09.225Z,98.78
2023-04-18T07:35:09.213Z,98.68
2023-04-18T07:36:09.234Z,98.68
2023-04-18T07:37:09.203Z,98.78
2023-04-18T07:38:09.186Z,98.78
2023-04-18T07:39:09.190Z,98.78
2023-04-18T07:40:09.237Z,98.68
2023-04-18T07:41:09.174Z,98.47
2023-04-18T07:42:09.157Z,98.47
2023-04-18T07:43:09.138Z,98.47
2023-04-18T07:44:09.132Z,98.37
2023-04-18T07:45:09.122Z,98.06
2023-04-18T07:46:09.123Z,98.16
2023-04-18T07:47:09.099Z,97.96
2023-04-18T07:48:09.128Z,97.96
2023-04-18T07:49:09.072Z,97.85
2023-04-18T07:50:09.078Z,97.96
2023-04-18T07:51:09.056Z,98.16
2023-04-18T07:52:09.045Z,98.06
2023-04-18T07:53:09.101Z,97.96
2023-04-18T07:54:09.043Z,97.85
2023-04-18T07:55:09.036Z,97.75
2023-04-18T07:56:09.076Z,97.71
2023-04-18T07:57:08.987Z,97.71
2023-04-18T07:58:08.988Z,97.60
2023-04-18T07:59:08.976Z,97.60
2023-04-18T08:00:09.041Z,97.71
2023-04-18T08:01:08.962Z,97.71
2023-04-18T08:02:09.130Z,97.50
2023-04-18T08:03:09.146Z,97.08
2023-04-18T08:04:09.005Z,96.98
2023-04-18T08:05:09.038Z,96.98
2023-04-18T08:06:08.950Z,96.88
2023-04-18T08:07:08.892Z,96.88
2023-04-18T08:08:08.878Z,96.77
2023-04-18T08:09:08.861Z,96.56
2023-04-18T08:10:08.863Z,96.56
2023-04-18T08:11:08.881Z,96.67
2023-04-18T08:12:08.838Z,96.67
2023-04-18T08:13:08.823Z,96.77
2023-04-18T08:14:08.827Z,96.77
2023-04-18T08:15:08.809Z,96.56
2023-04-18T08:16:08.843Z,96.47
2023-04-18T08:17:08.788Z,96.56
2023-04-18T08:18:08.784Z,96.62
2023-04-18T08:19:08.756Z,96.47
2023-04-18T08:20:08.781Z,96.42
2023-04-18T08:21:08.735Z,96.21
2023-04-18T08:22:08.733Z,96.42
2023-04-18T08:23:11.287Z,96.73
2023-04-18T08:24:08.794Z,96.73
2023-04-18T08:25:08.694Z,96.73
2023-04-18T08:26:08.682Z,96.98
2023-04-18T08:27:08.670Z,97.08
2023-04-18T08:28:08.675Z,97.19
2023-04-18T08:29:08.866Z,97.19
2023-04-18T08:30:08.645Z,97.50
2023-04-18T08:31:08.694Z,97.29
2023-04-18T08:32:08.711Z,97.39
2023-04-18T08:33:08.647Z,97.39
2023-04-18T08:34:08.609Z,97.19
2023-04-18T08:35:08.591Z,97.19
2023-04-18T08:36:08.597Z,97.50
2023-04-18T08:37:08.575Z,97.60
2023-04-18T08:38:08.571Z,97.60
2023-04-18T08:39:08.549Z,97.81
2023-04-18T08:40:08.584Z,97.60
2023-04-18T08:41:08.545Z,97.71
2023-04-18T08:42:08.529Z,97.91
2023-04-18T08:43:08.504Z,97.91
2023-04-18T08:44:08.506Z,97.91
2023-04-18T08:45:08.494Z,97.91
2023-04-18T08:46:08.503Z,97.81
2023-04-18T08:47:08.478Z,97.60
2023-04-18T08:48:08.477Z,97.50
2023-04-18T08:49:09.624Z,97.29
2023-04-18T08:50:08.491Z,96.98
2023-04-18T08:51:08.431Z,97.19
2023-04-18T08:52:08.432Z,96.94
2023-04-18T08:53:08.420Z,96.77
2023-04-18T08:54:08.404Z,96.52
2023-04-18T08:55:08.386Z,96.62
2023-04-18T08:56:08.360Z,95.70
2023-04-18T08:57:08.359Z,95.39
2023-04-18T08:58:08.356Z,95.49
2023-04-18T08:59:08.336Z,95.59
2023-04-18T09:00:08.357Z,95.39
2023-04-18T09:01:08.350Z,95.45
2023-04-18T09:02:08.355Z,95.65
2023-04-18T09:03:08.362Z,95.65
2023-04-18T09:04:08.356Z,95.34
2023-04-18T09:05:08.304Z,94.52
2023-04-18T09:06:08.373Z,93.90
2023-04-18T09:07:08.248Z,93.59
2023-04-18T09:08:08.252Z,93.69
2023-04-18T09:09:08.230Z,93.07
2023-04-18T09:10:08.250Z,93.18
2023-04-18T09:11:08.213Z,93.34
2023-04-18T09:12:08.218Z,93.24
2023-04-18T09:13:08.198Z,93.34
2023-04-18T09:14:08.182Z,92.61
2023-04-18T09:15:08.168Z,92.31
2023-04-18T09:16:08.182Z,92.41
2023-04-18T09:17:08.167Z,92.82
2023-04-18T09:18:08.211Z,92.51
2023-04-18T09:19:08.141Z,91.96
2023-04-18T09:20:08.119Z,91.75
2023-04-18T09:21:08.106Z,91.64
2023-04-18T09:22:08.103Z,91.64
2023-04-18T09:23:08.100Z,91.24
2023-04-18T09:24:08.090Z,91.44
2023-04-18T09:25:08.070Z,91.13
2023-04-18T09:26:08.065Z,91.13
2023-04-18T09:27:08.053Z,90.72
2023-04-18T09:28:08.070Z,90.31
2023-04-18T09:29:08.027Z,90.31
2023-04-18T09:30:08.041Z,90.82
2023-04-18T09:31:08.078Z,90.92
2023-04-18T09:32:08.008Z,90.82
2023-04-18T09:33:08.056Z,90.82
2023-04-18T09:34:07.985Z,91.24
2023-04-18T09:35:07.983Z,90.72
2023-04-18T09:36:07.960Z,90.51
2023-04-18T09:37:08.032Z,90.41
2023-04-18T09:38:07.948Z,89.89
2023-04-18T09:39:07.915Z,89.79
2023-04-18T09:40:07.924Z,89.69
2023-04-18T09:41:07.913Z,89.75
2023-04-18T09:42:07.942Z,89.65
2023-04-18T09:43:07.877Z,89.54
2023-04-18T09:44:07.874Z,89.03
2023-04-18T09:45:07.861Z,88.86
2023-04-18T09:46:07.913Z,89.44
2023-04-18T09:47:07.851Z,89.23
2023-04-18T09:48:08.096Z,89.23
2023-04-18T09:49:10.355Z,89.23
2023-04-18T09:50:07.832Z,88.92
2023-04-18T09:51:07.792Z,88.47
2023-04-18T09:52:07.794Z,87.85
2023-04-18T09:53:07.790Z,88.17
2023-04-18T09:54:07.759Z,87.92
2023-04-18T09:55:07.757Z,87.60
2023-04-18T09:56:07.732Z,87.30
2023-04-18T09:57:07.733Z,86.79
2023-04-18T09:58:07.723Z,86.27
2023-04-18T09:59:07.715Z,86.68
2023-04-18T10:00:07.698Z,86.99
2023-04-18T10:01:07.716Z,87.09
2023-04-18T10:02:07.766Z,86.37
2023-04-18T10:03:07.765Z,86.16
2023-04-18T10:04:07.732Z,86.06
2023-04-18T10:05:07.729Z,87.09
2023-04-18T10:06:07.632Z,87.46
2023-04-18T10:07:07.623Z,86.33
2023-04-18T10:08:07.607Z,86.13
2023-04-18T10:09:07.585Z,85.82
2023-04-18T10:10:07.589Z,85.71
2023-04-18T10:11:07.585Z,85.57
2023-04-18T10:12:07.576Z,86.19
2023-04-18T10:13:07.560Z,85.47
2023-04-18T10:14:07.536Z,85.68
2023-04-18T10:15:07.556Z,84.44
2023-04-18T10:16:07.544Z,84.23
2023-04-18T10:17:07.508Z,84.13
2023-04-18T10:18:07.545Z,83.83
2023-04-18T10:19:07.557Z,83.83
2023-04-18T10:20:07.485Z,83.83
2023-04-18T10:21:07.470Z,84.50
2023-04-18T10:22:07.453Z,84.71
2023-04-18T10:23:07.463Z,85.60
2023-04-18T10:24:07.454Z,84.22
2023-04-18T10:25:07.414Z,84.08
2023-04-18T10:26:07.440Z,83.12
2023-04-18T10:27:07.399Z,80.24
2023-04-18T10:28:07.397Z,81.88
2023-04-18T10:29:07.367Z,79.69
2023-04-18T10:30:08.975Z,80.31
2023-04-18T10:31:07.375Z,81.43
2023-04-18T10:32:07.364Z,79.28
2023-04-18T10:33:10.562Z,80.76
2023-04-18T10:34:07.328Z,80.04
2023-04-18T10:35:07.322Z,80.14
2023-04-18T10:36:07.316Z,79.83
2023-04-18T10:37:07.316Z,80.65
2023-04-18T10:38:07.289Z,79.93
2023-04-18T10:39:07.278Z,79.01
2023-04-18T10:40:07.270Z,80.38
2023-04-18T10:41:07.251Z,80.07
2023-04-18T10:42:07.254Z,80.69
2023-04-18T10:43:07.236Z,81.27
2023-04-18T10:44:08.473Z,81.37
2023-04-18T10:45:07.211Z,81.06
2023-04-18T10:46:10.122Z,80.72
2023-04-18T10:47:07.250Z,80.72
2023-04-18T10:48:07.189Z,79.86
2023-04-18T10:49:07.165Z,79.49
2023-04-18T10:50:07.183Z,79.59
2023-04-18T10:51:07.162Z,79.80
2023-04-18T10:52:07.166Z,80.07
2023-04-18T10:53:07.138Z,79.45
2023-04-18T10:54:07.116Z,79.14
2023-04-18T10:55:07.093Z,78.42
2023-04-18T10:56:07.086Z,78.42
2023-04-18T10:57:07.093Z,78.94
2023-04-18T10:58:07.078Z,78.42
2023-04-18T10:59:07.068Z,78.63
2023-04-18T11:00:07.050Z,77.20
2023-04-18T11:01:07.066Z,76.89
2023-04-18T11:02:07.070Z,77.33
2023-04-18T11:03:07.064Z,77.95
2023-04-18T11:04:07.082Z,78.56
2023-04-18T11:05:07.049Z,79.08
2023-04-18T11:06:07.000Z,79.38
2023-04-18T11:07:06.977Z,78.46
2023-04-18T11:08:06.960Z,78.97
2023-04-18T11:09:06.963Z,79.55
2023-04-18T11:10:06.934Z,79.66
2023-04-18T11:11:06.936Z,78.53
2023-04-18T11:12:06.952Z,78.53
2023-04-18T11:13:06.904Z,78.39
2023-04-18T11:14:06.986Z,77.67
2023-04-18T11:15:06.879Z,77.26
2023-04-18T11:16:06.885Z,77.16
2023-04-18T11:17:06.869Z,77.20
2023-04-18T11:18:06.872Z,77.67
2023-04-18T11:19:06.834Z,77.40
2023-04-18T11:20:06.829Z,77.81
2023-04-18T11:21:06.850Z,78.02
2023-04-18T11:22:06.812Z,78.32
2023-04-18T11:23:06.797Z,78.02
2023-04-18T11:24:06.804Z,77.64
2023-04-18T11:25:06.773Z,78.87
2023-04-18T11:26:06.766Z,79.35
2023-04-18T11:27:06.755Z,78.02
2023-04-18T11:28:06.775Z,78.42
2023-04-18T11:29:06.756Z,78.56
2023-04-18T11:30:06.766Z,78.05
2023-04-18T11:31:06.726Z,79.14
2023-04-18T11:32:06.855Z,78.74
2023-04-18T11:33:06.745Z,78.36
2023-04-18T11:34:06.684Z,78.77
2023-04-18T11:35:06.685Z,79.01
2023-04-18T11:36:06.674Z,79.32
2023-04-18T11:37:06.657Z,79.93
2023-04-18T11:38:06.661Z,79.69
2023-04-18T11:39:06.639Z,79.59
2023-04-18T11:40:06.618Z,79.49
2023-04-18T11:41:06.610Z,78.05
2023-04-18T11:42:06.609Z,78.29
2023-04-18T11:43:06.585Z,78.19
2023-04-18T11:44:06.569Z,78.81
2023-04-18T11:45:06.566Z,78.60
2023-04-18T11:46:06.573Z,79.28
2023-04-18T11:47:06.571Z,78.67
2023-04-18T11:48:06.562Z,79.35
2023-04-18T11:49:06.527Z,77.16
2023-04-18T11:50:06.508Z,75.86
2023-04-18T11:51:06.519Z,76.00
2023-04-18T11:52:06.493Z,76.41
2023-04-18T11:53:06.479Z,77.03
2023-04-18T11:54:06.490Z,77.33
2023-04-18T11:55:06.504Z,77.54
2023-04-18T11:56:06.470Z,77.50
2023-04-18T11:57:06.437Z,76.68
2023-04-18T11:58:06.422Z,76.03
2023-04-18T11:59:06.440Z,75.82
2023-04-18T12:00:06.399Z,76.34
2023-04-18T12:01:06.401Z,76.24
2023-04-18T12:02:16.112Z,76.03
2023-04-18T12:03:06.506Z,76.68
2023-04-18T12:04:06.654Z,76.17
2023-04-18T12:05:06.857Z,75.66
2023-04-18T12:06:06.442Z,76.78
2023-04-18T12:07:06.334Z,76.17
2023-04-18T12:08:06.370Z,75.49
2023-04-18T12:09:06.310Z,76.20
2023-04-18T12:10:06.291Z,76.31
2023-04-18T12:11:06.292Z,76.89
2023-04-18T12:12:06.284Z,76.68
2023-04-18T12:13:06.280Z,76.07
2023-04-18T12:14:06.279Z,76.48
2023-04-18T12:15:06.256Z,76.07
2023-04-18T12:16:06.250Z,75.96
2023-04-18T12:17:06.225Z,76.37
2023-04-18T12:18:06.281Z,76.17
2023-04-18T12:19:06.265Z,76.37
2023-04-18T12:20:06.184Z,75.35
2023-04-18T12:21:06.186Z,76.58
2023-04-18T12:22:06.187Z,74.94
2023-04-18T12:23:06.183Z,75.15
2023-04-18T12:24:06.147Z,76.07
2023-04-18T12:25:06.151Z,75.66
2023-04-18T12:26:06.130Z,75.56
2023-04-18T12:27:06.118Z,75.76
2023-04-18T12:28:06.095Z,76.37
2023-04-18T12:29:06.105Z,76.78
2023-04-18T12:30:06.091Z,76.27
2023-04-18T12:31:06.123Z,77.09
2023-04-18T12:32:06.064Z,77.61
2023-04-18T12:33:06.094Z,77.61
2023-04-18T12:34:06.024Z,76.48
2023-04-18T12:35:06.053Z,75.86
2023-04-18T12:36:06.015Z,75.66
2023-04-18T12:37:06.047Z,76.17
2023-04-18T12:38:05.994Z,76.58
2023-04-18T12:39:05.997Z,76.37
2023-04-18T12:40:05.964Z,76.48
2023-04-18T12:41:05.975Z,76.17
2023-04-18T12:42:05.954Z,76.07
2023-04-18T12:43:05.950Z,77.29
2023-04-18T12:44:05.947Z,76.03
2023-04-18T12:45:05.932Z,75.73
2023-04-18T12:46:05.943Z,76.24
2023-04-18T12:47:05.913Z,76.03
2023-04-18T12:48:05.994Z,76.24
2023-04-18T12:49:05.875Z,76.54
2023-04-18T12:50:05.866Z,76.14
2023-04-18T12:51:05.858Z,75.93
2023-04-18T12:52:05.849Z,75.21
2023-04-18T12:53:05.836Z,75.11
2023-04-18T12:54:05.823Z,74.63
2023-04-18T12:55:05.811Z,75.69
2023-04-18T12:56:05.794Z,76.58